Groom Creek, Arizona
Current Conditions -  °F | °C
As of 8:53 AM on Thursday 30 Oct 2014 (Local Time) from KPRC Reporting Station
Clear Clear  
Wind Chill: 57°   Ceiling: Unl
Heat Index: 57°   Visibility: 10mi
Dew Point: 30°   Wind: 5mph
Humidity: 36%   Direction: 40°NE
Pressure: 30.27"   Gusts: NA
Location:  34.5368°N, 112.512°W
Report Text: KPRC 301553Z 04004KT 10SM CLR 14/M01 A3027 RMK AO2 SLP200 T01391011
Loading
Personal Weather Stations






























Interactive Weather Map
Tropical Storm Tracking
New forecast layout! Learn more

10-Day Weather Forecast

Advertisements
Track Severe Weather on mobile